Pagrindinis puslapis
METAR-TAF:

METAR-TAF

Oro uostai :

Brestas, Baltarusija

platuma: 52-06-30N, ilguma: 023-53-48E, Aukštis: 143 m

Dabartinis oras

Ataskaita buvo paskelbta 1 valandą ir 48 minutes, ne 12:30 UTC
Vėjas 14 kt iš Šiaurės/Šiaurės Rytų su gūsio iki 19 kt
Temperatūra 16°C
Drėgmė 31%
Slėgis 1016 hPa
Matomumas: 8000 m
Su prošvaistėmis ne aukštis 4000 ft

METAR: UMBB 011230Z 02007G10MPS 8000 BKN040 16/M01 Q1016 R11/CLRD// NOSIG

Laikas: 17:18 (14:18 UTC)

Prognozė

Ataskaita buvo paskelbta 3 valandos ir 18 minutes, ne 11:00 UTC
Prognozė galioja nuo 01 metu 12 UTC su 01 metu 21 UTC
Vėjas 10 kt iš Šiaurės/Šiaurės Rytų su gūsio iki 19 kt
Matomumas 10 km arba daugiau
Su prošvaistėmis ne aukštis 2000 ft
Laikinai
nuo 01 metu 12 UTC su 01 metu 17 UTC
Vėjas 16 kt iš Šiaurės Rytų su gūsio iki 25 kt

TAF: UMBB 011100Z 0112/0121 02005G10MPS 9999 BKN020 TEMPO 0112/0117 05008G13MPS

Orai ataskaitas ir orų prognozės (METAR, TAF).

turimą stotys yra geltonos ir raudonos taškus žemėlapyje.

Perkelti pele per norėdami pamatyti stoties vardą.

Tada spustelėkite, norėdami matyti oro stebėjimo ir prognozės.

Norėdami pakeisti žemėlapį: spustelėkite ant žalios mygtukų su juodo kryžiaus žemyn,; žalią mygtuką su brūkšneliu, jei norite nutolinti; arba žalių rodyklių gretimoms žemėlapius.


METAR-TAF: